Time;durP1;ratioP1;P1;durP2;ratioP2;P2;SDS_P1;SDS_P2;PMS_P1;PMS_P2;Temp;Humidity;BMP_temperature;BMP_pressure;BME280_temperature;BME280_humidity;BME280_pressure;Samples;Min_cycle;Max_cycle;Signal;HPM_P1;HPM_P2
2022/02/15 00:00:43;;;;;;;67.75;34.03;;;;;;;-1.35;73.08;101868.41;1769803;81;21212;-63
2022/02/15 00:03:52;;;;;;;75.40;37.00;;;;;;;-1.38;73.02;101865.41;1770172;81;21186;-62
2022/02/15 00:06:57;;;;;;;68.02;32.95;;;;;;;-1.40;72.99;101860.55;1771160;80;21335;-63
2022/02/15 00:10:03;;;;;;;69.53;36.08;;;;;;;-1.44;72.80;101862.95;1771047;79;21614;-63
2022/02/15 00:13:08;;;;;;;65.30;33.85;;;;;;;-1.46;72.73;101859.94;1770464;80;21196;-63
2022/02/15 00:16:13;;;;;;;63.05;33.45;;;;;;;-1.52;72.54;101857.51;1771072;79;21637;-63
2022/02/15 00:19:20;;;;;;;70.37;33.88;;;;;;;-1.57;72.40;101853.19;1770684;79;21193;-63
2022/02/15 00:22:25;;;;;;;62.83;31.25;;;;;;;-1.60;72.34;101856.46;1770313;81;21343;-63
2022/02/15 00:25:32;;;;;;;64.20;32.00;;;;;;;-1.63;72.24;101856.59;1772162;79;21263;-63
2022/02/15 00:28:36;;;;;;;54.00;30.12;;;;;;;-1.67;72.23;101856.33;1770720;81;21241;-63
2022/02/15 00:31:42;;;;;;;60.00;31.15;;;;;;;-1.73;72.15;101848.53;1771216;80;21308;-63
2022/02/15 00:34:51;;;;;;;61.00;30.72;;;;;;;-1.76;72.32;101840.61;1770941;79;21245;-63
2022/02/15 00:37:55;;;;;;;59.38;30.55;;;;;;;-1.76;72.53;101836.58;1771006;81;21359;-62
2022/02/15 00:41:03;;;;;;;53.30;28.85;;;;;;;-1.76;72.55;101833.41;1771216;79;21828;-63
2022/02/15 00:44:09;;;;;;;52.93;28.35;;;;;;;-1.75;72.55;101831.61;1771329;79;21540;-63
2022/02/15 00:47:16;;;;;;;48.87;28.38;;;;;;;-1.74;72.48;101827.98;1770993;81;21256;-63
2022/02/15 00:50:21;;;;;;;45.28;26.48;;;;;;;-1.74;72.38;101827.98;1770827;79;21216;-64
2022/02/15 00:53:27;;;;;;;49.45;26.82;;;;;;;-1.77;72.27;101830.33;1770818;81;21213;-63
2022/02/15 00:56:32;;;;;;;55.55;27.90;;;;;;;-1.81;72.16;101831.38;1770955;81;21701;-63
2022/02/15 00:59:38;;;;;;;47.13;27.07;;;;;;;-1.84;72.16;101835.53;1770952;79;21252;-63
2022/02/15 01:02:44;;;;;;;48.90;26.50;;;;;;;-1.85;72.32;101828.42;1770923;81;21252;-64
2022/02/15 01:05:52;;;;;;;55.15;29.90;;;;;;;-1.88;72.23;101823.19;1771214;79;21359;-63
2022/02/15 01:08:58;;;;;;;51.58;27.27;;;;;;;-1.92;72.28;101826.91;1753905;81;21194;-63
2022/02/15 01:12:03;;;;;;;50.58;25.82;;;;;;;-1.90;72.81;101827.73;1771364;78;21208;-63
2022/02/15 01:15:09;;;;;;;47.15;26.12;;;;;;;-1.87;73.14;101818.21;1719567;82;21233;-63
2022/02/15 01:18:15;;;;;;;51.40;27.20;;;;;;;-1.82;73.16;101814.88;1677390;84;21753;-64
2022/02/15 01:21:21;;;;;;;49.60;27.25;;;;;;;-1.80;73.18;101813.02;1697821;83;21341;-64
2022/02/15 01:24:26;;;;;;;43.92;25.17;;;;;;;-1.81;73.11;101813.08;1690712;83;21330;-63
2022/02/15 01:27:31;;;;;;;45.75;25.30;;;;;;;-1.81;72.93;101811.73;1690548;85;21225;-63
2022/02/15 01:30:37;;;;;;;47.43;25.37;;;;;;;-1.85;72.64;101812.78;1691079;83;21234;-62
2022/02/15 01:33:43;;;;;;;44.13;25.05;;;;;;;-1.92;72.44;101814.84;1691073;83;21265;-63
2022/02/15 01:36:49;;;;;;;44.77;25.25;;;;;;;-1.97;72.46;101815.52;1690578;84;21573;-63
2022/02/15 01:39:56;;;;;;;48.48;26.97;;;;;;;-2.01;72.54;101810.31;1697877;83;21331;-63
2022/02/15 01:43:03;;;;;;;46.90;24.90;;;;;;;-2.03;72.58;101819.77;1697709;84;21213;-63
2022/02/15 01:46:10;;;;;;;44.35;24.20;;;;;;;-2.04;72.79;101815.34;1690849;83;21225;-63
2022/02/15 01:49:15;;;;;;;44.77;24.87;;;;;;;-2.02;72.90;101817.52;1690660;83;21217;-63
2022/02/15 01:52:20;;;;;;;54.05;26.33;;;;;;;-2.01;72.95;101815.22;1697943;84;21185;-64
2022/02/15 01:55:26;;;;;;;49.85;28.12;;;;;;;-2.01;72.93;101811.20;1690580;83;21241;-63
2022/02/15 01:58:51;;;;;;;47.38;25.72;;;;;;;-1.98;73.12;101814.20;1690876;85;21300;-63
2022/02/15 02:01:57;;;;;;;49.73;26.40;;;;;;;-1.96;73.34;101821.73;1676213;85;21225;-63
2022/02/15 02:08:33;;;;;;;53.78;26.75;;;;;;;-1.88;73.63;101827.67;1690664;85;21209;-63
2022/02/15 02:11:39;;;;;;;49.67;27.10;;;;;;;-1.85;73.71;101827.54;1690668;85;21234;-63
2022/02/15 02:14:48;;;;;;;46.40;26.60;;;;;;;-1.83;73.83;101830.59;1698219;82;21853;-63
2022/02/15 02:18:13;;;;;;;51.20;28.65;;;;;;;-1.81;73.73;101831.38;1697877;84;21264;-64
2022/02/15 02:21:19;;;;;;;48.15;27.98;;;;;;;-1.81;73.72;101827.34;1697857;83;21281;-63
2022/02/15 02:24:26;;;;;;;52.93;28.38;;;;;;;-1.77;73.89;101828.11;1690760;83;21303;-64
2022/02/15 02:27:34;;;;;;;56.88;29.18;;;;;;;-1.73;73.91;101823.03;1697801;84;21209;-64
2022/02/15 02:30:39;;;;;;;53.68;29.57;;;;;;;-1.73;73.90;101833.28;1697867;83;21304;-64
2022/02/15 02:33:44;;;;;;;67.30;34.67;;;;;;;-1.68;74.05;101830.40;1690645;84;21221;-65
2022/02/15 02:36:51;;;;;;;59.83;33.40;;;;;;;-1.68;74.02;101832.63;1697885;84;21276;-64
2022/02/15 02:40:03;;;;;;;58.98;32.30;;;;;;;-1.65;74.28;101832.98;1690726;83;21304;-63
2022/02/15 02:43:10;;;;;;;60.28;32.50;;;;;;;-1.60;74.56;101830.50;1690752;85;21265;-65
2022/02/15 02:46:16;;;;;;;65.55;33.05;;;;;;;-1.55;74.71;101833.87;1690723;83;21237;-65
2022/02/15 02:49:22;;;;;;;58.42;33.10;;;;;;;-1.49;74.74;101834.56;1690656;83;21226;-64
2022/02/15 02:52:28;;;;;;;61.08;33.85;;;;;;;-1.46;74.63;101838.45;1690634;85;21233;-64
2022/02/15 02:55:37;;;;;;;62.58;31.27;;;;;;;-1.48;74.52;101839.86;1697815;83;21283;-64
2022/02/15 02:58:43;;;;;;;61.60;33.15;;;;;;;-1.55;74.53;101835.21;1696940;84;21225;-64
2022/02/15 03:01:49;;;;;;;64.67;33.08;;;;;;;-1.53;74.79;101843.20;1697658;84;21229;-64
2022/02/15 03:04:55;;;;;;;66.50;34.20;;;;;;;-1.48;74.91;101840.32;1697738;83;21281;-63
2022/02/15 03:08:03;;;;;;;70.17;37.80;;;;;;;-1.49;74.65;101839.93;1697698;84;21218;-64
2022/02/15 03:11:11;;;;;;;73.20;41.15;;;;;;;-1.52;74.50;101836.42;1697718;83;21233;-64
2022/02/15 03:14:17;;;;;;;77.85;40.73;;;;;;;-1.52;74.47;101835.08;1697604;83;21726;-64
2022/02/15 03:17:23;;;;;;;73.75;40.73;;;;;;;-1.52;74.53;101833.34;1697936;84;21209;-63
2022/02/15 03:20:28;;;;;;;73.65;38.40;;;;;;;-1.51;74.65;101842.19;1689996;83;21253;-63
2022/02/15 03:23:33;;;;;;;71.55;35.40;;;;;;;-1.49;74.59;101839.93;1690570;85;21201;-64
2022/02/15 03:26:40;;;;;;;61.60;32.90;;;;;;;-1.52;74.18;101840.06;1690612;85;21369;-64
2022/02/15 03:29:46;;;;;;;80.50;43.02;;;;;;;-1.58;73.67;101844.74;1690719;83;21320;-64
2022/02/15 03:32:55;;;;;;;74.35;39.73;;;;;;;-1.65;73.44;101841.05;1675136;85;21237;-63
2022/02/15 03:36:03;;;;;;;70.03;39.53;;;;;;;-1.67;73.78;101845.13;1690697;83;21209;-64
2022/02/15 03:39:13;;;;;;;81.67;39.35;;;;;;;-1.68;73.62;101845.16;1690671;83;21304;-65
2022/02/15 03:45:43;;;;;;;65.17;35.80;;;;;;;-1.72;73.52;101848.92;1690667;83;21451;-60
2022/02/15 03:48:51;;;;;;;67.50;35.33;;;;;;;-1.73;73.79;101854.75;1691625;84;21231;-62
2022/02/15 03:51:58;;;;;;;59.40;33.95;;;;;;;-1.73;73.87;101852.06;1690688;85;21249;-62
2022/02/15 03:55:05;;;;;;;54.77;31.87;;;;;;;-1.72;74.00;101848.92;1690383;83;21734;-62
2022/02/15 03:58:11;;;;;;;63.68;31.93;;;;;;;-1.70;73.91;101853.28;1690120;85;21297;-62
2022/02/15 04:01:17;;;;;;;57.55;31.02;;;;;;;-1.75;73.57;101847.25;1690251;83;21727;-63
2022/02/15 04:04:23;;;;;;;53.10;29.70;;;;;;;-1.79;73.54;101852.32;1690256;83;21782;-63
2022/02/15 04:07:31;;;;;;;53.73;28.90;;;;;;;-1.82;73.26;101852.45;1690164;85;21230;-63
2022/02/15 04:10:36;;;;;;;55.73;28.73;;;;;;;-1.94;72.64;101848.93;1690134;83;21289;-63
2022/02/15 04:13:44;;;;;;;50.65;27.35;;;;;;;-2.04;72.40;101842.17;1690236;85;21207;-63
2022/02/15 04:16:51;;;;;;;59.13;31.45;;;;;;;-2.12;72.38;101850.11;1690564;82;21222;-62
2022/02/15 04:19:58;;;;;;;50.98;27.02;;;;;;;-2.18;72.49;101841.84;1674546;84;21256;-62
2022/02/15 04:23:04;;;;;;;50.05;27.32;;;;;;;-2.21;72.44;101858.06;1690395;85;21201;-62
2022/02/15 04:26:09;;;;;;;52.98;26.85;;;;;;;-2.27;72.16;101860.10;1691688;83;21280;-62
2022/02/15 04:29:17;;;;;;;49.63;28.15;;;;;;;-2.35;71.93;101846.11;1742663;81;21213;-62
2022/02/15 04:32:23;;;;;;;49.08;27.65;;;;;;;-2.39;71.97;101860.09;1742204;82;21726;-63
2022/02/15 04:35:29;;;;;;;52.48;28.42;;;;;;;-2.44;71.87;101862.08;1742152;81;21378;-63
2022/02/15 04:38:33;;;;;;;77.90;44.42;;;;;;;-2.49;71.77;101866.73;1742652;82;21730;-64
2022/02/15 04:41:39;;;;;;;74.70;40.83;;;;;;;-2.48;72.33;101862.25;1741872;82;21406;-63
2022/02/15 04:44:46;;;;;;;66.85;34.92;;;;;;;-2.39;73.13;101864.12;1742203;81;21401;-63
2022/02/15 04:47:54;;;;;;;60.50;33.03;;;;;;;-2.31;73.70;101854.44;1741942;82;21334;-63
2022/02/15 04:51:02;;;;;;;67.97;32.10;;;;;;;-2.28;73.78;101860.56;1742085;81;21378;-63
2022/02/15 04:54:09;;;;;;;54.70;29.72;;;;;;;-2.24;73.69;101858.64;1742072;81;21651;-63
2022/02/15 04:57:15;;;;;;;53.40;29.40;;;;;;;-2.31;73.29;101862.02;1741976;82;21311;-63
2022/02/15 05:00:21;;;;;;;54.95;28.32;;;;;;;-2.35;73.38;101862.20;1742074;81;21391;-63
2022/02/15 05:03:33;;;;;;;60.90;31.62;;;;;;;-2.31;73.72;101860.68;1742165;82;21686;-62
2022/02/15 05:06:38;;;;;;;54.95;30.52;;;;;;;-2.27;73.65;101867.69;1742187;82;21355;-63
2022/02/15 05:09:44;;;;;;;55.00;31.05;;;;;;;-2.23;73.51;101862.60;1742076;81;21825;-62
2022/02/15 05:12:50;;;;;;;64.07;35.28;;;;;;;-2.23;73.32;101865.28;1742022;82;21355;-63
2022/02/15 05:16:13;;;;;;;65.25;36.55;;;;;;;-2.17;73.40;101870.89;1741647;81;21378;-63
2022/02/15 05:19:23;;;;;;;66.72;38.50;;;;;;;-2.12;73.42;101875.13;1739437;81;21354;-63
2022/02/15 05:22:30;;;;;;;77.82;41.75;;;;;;;-2.08;73.29;101871.38;1742767;82;21245;-64
2022/02/15 05:25:35;;;;;;;90.07;49.20;;;;;;;-2.01;73.40;101874.23;1741697;81;21208;-63
2022/02/15 05:28:58;;;;;;;91.55;51.53;;;;;;;-1.95;73.50;101877.17;1736862;81;21263;-64
2022/02/15 05:32:06;;;;;;;104.87;55.45;;;;;;;-1.88;73.67;101875.52;1769690;81;21202;-64
2022/02/15 05:35:14;;;;;;;120.53;60.85;;;;;;;-1.79;73.83;101876.94;1773098;80;21745;-63
2022/02/15 05:38:19;;;;;;;160.25;65.65;;;;;;;-1.68;74.01;101884.97;1785595;80;21206;-62
2022/02/15 05:41:27;;;;;;;207.25;78.28;;;;;;;-1.59;74.09;101885.92;1771598;80;21201;-63
2022/02/15 05:44:32;;;;;;;211.32;74.60;;;;;;;-1.48;74.16;101885.97;1771602;79;21323;-63
2022/02/15 05:47:38;;;;;;;178.38;62.98;;;;;;;-1.40;74.10;101881.16;1764059;80;21201;-63
2022/02/15 05:50:53;;;;;;;119.40;53.50;;;;;;;-1.33;73.92;101879.48;1771977;79;21703;-63
2022/02/15 05:54:02;;;;;;;113.80;50.90;;;;;;;-1.25;73.89;101885.91;1772357;79;21204;-64
2022/02/15 05:57:08;;;;;;;91.87;45.23;;;;;;;-1.18;73.78;101888.71;1755880;81;21208;-63
2022/02/15 06:00:17;;;;;;;78.92;40.25;;;;;;;-1.11;73.59;101895.59;1758408;79;21686;-63
2022/02/15 06:06:47;;;;;;;85.53;46.83;;;;;;;-0.97;73.51;101894.06;1768775;80;21710;-63
2022/02/15 06:09:52;;;;;;;93.07;49.20;;;;;;;-0.90;73.37;101895.98;1769093;80;21265;-63
2022/02/15 06:13:02;;;;;;;86.90;45.95;;;;;;;-0.83;73.46;101892.10;1759642;81;21578;-62
2022/02/15 06:16:08;;;;;;;79.97;42.45;;;;;;;-0.72;73.47;101897.88;1739903;81;21220;-63
2022/02/15 06:19:22;;;;;;;72.78;35.95;;;;;;;-0.61;73.52;101899.16;1758081;80;21174;-62
2022/02/15 06:22:27;;;;;;;68.37;32.58;;;;;;;-0.47;73.61;101896.72;1758334;80;21189;-65
2022/02/15 06:25:33;;;;;;;53.00;27.13;;;;;;;-0.32;73.60;101891.97;1765434;80;21561;-65
2022/02/15 06:28:38;;;;;;;47.27;25.10;;;;;;;-0.19;73.58;101894.51;1769475;80;21187;-65
2022/02/15 06:31:46;;;;;;;45.73;23.38;;;;;;;-0.03;73.63;101883.89;1769081;80;21698;-65
2022/02/15 06:34:51;;;;;;;49.98;24.15;;;;;;;0.13;73.59;101882.23;1769459;79;21225;-65
2022/02/15 06:38:00;;;;;;;47.70;27.98;;;;;;;0.28;73.40;101874.77;1769728;81;21224;-64
2022/02/15 06:41:06;;;;;;;48.42;27.42;;;;;;;0.45;73.20;101881.55;1767873;80;21287;-64
2022/02/15 06:44:13;;;;;;;53.13;29.60;;;;;;;0.59;72.98;101884.42;1769117;79;21690;-63
2022/02/15 06:47:13;;;;;;;53.13;29.35;;;;;;;0.73;72.72;101879.22;1767495;81;21181;-66
2022/02/15 06:50:06;;;;;;;56.08;30.88;;;;;;;0.87;72.48;101888.82;1769743;79;21794;-65
2022/02/15 06:53:21;;;;;;;53.10;30.27;;;;;;;1.00;72.22;101881.02;1767734;80;21179;-63
2022/02/15 06:56:38;;;;;;;54.95;28.02;;;;;;;1.14;72.00;101886.06;1759096;80;21221;-64
2022/02/15 06:59:48;;;;;;;57.50;27.65;;;;;;;1.27;71.81;101876.85;1769610;79;21193;-65
2022/02/15 07:02:54;;;;;;;51.15;25.65;;;;;;;1.38;71.55;101886.13;1736715;81;21200;-64
2022/02/15 07:06:01;;;;;;;50.45;24.30;;;;;;;1.49;71.23;101882.39;1729369;83;21479;-65
2022/02/15 07:09:07;;;;;;;38.73;19.60;;;;;;;1.63;70.92;101880.78;1760852;79;21706;-65
2022/02/15 07:12:20;;;;;;;36.45;19.10;;;;;;;1.75;70.51;101878.28;1780965;80;21189;-62
2022/02/15 07:15:34;;;;;;;37.55;21.10;;;;;;;1.84;70.04;101880.98;1767766;79;21711;-65
2022/02/15 07:18:44;;;;;;;39.80;20.37;;;;;;;1.89;69.51;101866.75;1754145;80;21800;-65
2022/02/15 07:21:53;;;;;;;35.15;17.45;;;;;;;1.92;69.27;101872.83;1769252;81;21181;-65
2022/02/15 07:25:13;;;;;;;31.10;16.82;;;;;;;1.91;69.06;101875.61;1730555;79;21197;-64
2022/02/15 07:28:28;;;;;;;31.65;16.40;;;;;;;1.88;68.96;101873.09;1770596;80;21347;-65
2022/02/15 07:31:53;;;;;;;34.38;18.92;;;;;;;1.89;69.02;101878.90;1756997;80;21335;-65
2022/02/15 07:35:08;;;;;;;33.18;18.05;;;;;;;1.95;69.10;101881.25;1752941;80;21260;-65
2022/02/15 07:38:14;;;;;;;31.55;17.55;;;;;;;2.06;69.08;101884.23;1768071;80;21208;-67
2022/02/15 07:41:21;;;;;;;36.65;20.52;;;;;;;2.09;68.82;101886.76;1769203;80;21387;-65
2022/02/15 07:44:28;;;;;;;32.20;17.15;;;;;;;2.15;68.77;101889.11;1770126;79;21347;-64
2022/02/15 07:47:33;;;;;;;27.27;15.08;;;;;;;2.18;68.69;101886.23;1769956;80;21778;-63
2022/02/15 07:50:41;;;;;;;28.65;15.38;;;;;;;2.20;68.50;101884.33;1768525;81;21212;-64
2022/02/15 07:53:48;;;;;;;29.37;15.43;;;;;;;2.26;68.55;101874.52;1771311;80;21185;-64
2022/02/15 07:56:55;;;;;;;31.25;16.57;;;;;;;2.33;68.52;101878.13;1771927;80;21931;-63
2022/02/15 08:00:03;;;;;;;28.07;15.45;;;;;;;2.38;68.74;101874.69;1770739;79;21220;-64
2022/02/15 08:03:10;;;;;;;25.60;14.07;;;;;;;2.45;68.64;101880.16;1771304;80;21606;-64
2022/02/15 08:06:15;;;;;;;32.63;15.68;;;;;;;2.51;68.41;101877.56;1770616;79;21806;-64
2022/02/15 08:09:22;;;;;;;28.95;15.08;;;;;;;2.54;68.30;101874.67;1768970;81;21378;-64
2022/02/15 08:12:28;;;;;;;25.08;13.35;;;;;;;2.61;68.44;101870.67;1771483;81;21700;-65
2022/02/15 08:15:39;;;;;;;20.23;11.22;;;;;;;2.68;68.49;101870.72;1769880;80;21865;-65
2022/02/15 08:18:48;;;;;;;18.32;9.90;;;;;;;2.76;68.38;101870.64;1769136;80;21317;-62
2022/02/15 08:21:54;;;;;;;16.07;9.30;;;;;;;2.84;67.82;101872.89;1765979;80;21352;-63
2022/02/15 08:25:00;;;;;;;22.37;9.90;;;;;;;2.92;67.22;101874.19;1769315;80;21219;-63
2022/02/15 08:28:08;;;;;;;16.42;9.63;;;;;;;2.97;66.85;101872.09;1769710;80;21233;-62
2022/02/15 08:31:16;;;;;;;17.90;9.78;;;;;;;3.03;66.44;101868.13;1767958;79;21273;-63
2022/02/15 08:34:21;;;;;;;19.10;10.25;;;;;;;3.08;66.36;101873.67;1767598;81;21256;-63
2022/02/15 08:37:27;;;;;;;18.85;10.08;;;;;;;3.17;66.15;101870.02;1768633;80;21578;-64
2022/02/15 08:40:33;;;;;;;18.90;10.55;;;;;;;3.22;65.66;101875.53;1769059;79;22052;-63
2022/02/15 08:43:41;;;;;;;18.85;10.98;;;;;;;3.27;65.48;101865.30;1767869;81;21228;-63
2022/02/15 08:46:47;;;;;;;21.75;10.60;;;;;;;3.32;65.05;101871.31;1738893;82;21201;-64
2022/02/15 08:49:55;;;;;;;20.17;11.08;;;;;;;3.32;64.74;101868.61;1759538;79;21714;-63
2022/02/15 08:53:01;;;;;;;21.70;11.18;;;;;;;3.37;65.03;101866.49;1740601;80;22018;-63
2022/02/15 08:56:07;;;;;;;19.52;10.45;;;;;;;3.46;65.08;101859.15;1739356;81;21197;-63
2022/02/15 08:59:13;;;;;;;22.07;10.63;;;;;;;3.55;65.20;101855.86;1739075;81;21205;-63
2022/02/15 09:02:18;;;;;;;16.90;9.83;;;;;;;3.66;65.29;101852.51;1738805;82;21240;-63
2022/02/15 09:05:23;;;;;;;19.10;10.80;;;;;;;3.77;64.96;101847.28;1740439;81;22038;-64
2022/02/15 09:08:30;;;;;;;16.85;9.90;;;;;;;3.80;64.47;101842.55;1740100;82;21232;-64
2022/02/15 09:11:36;;;;;;;14.70;8.90;;;;;;;3.87;64.65;101849.30;1739722;82;21745;-62
2022/02/15 09:14:42;;;;;;;15.25;9.78;;;;;;;3.98;64.29;101846.77;1747613;81;21221;-63
2022/02/15 09:17:49;;;;;;;18.15;9.73;;;;;;;4.01;63.52;101838.45;1767892;81;21214;-63
2022/02/15 09:20:55;;;;;;;17.37;8.53;;;;;;;4.03;63.39;101835.64;1769507;80;21967;-63
2022/02/15 09:24:01;;;;;;;16.55;7.95;;;;;;;4.09;63.18;101834.77;1771346;79;21367;-65
2022/02/15 09:27:06;;;;;;;13.98;7.78;;;;;;;4.19;63.03;101829.61;1766931;80;21193;-63
2022/02/15 09:30:13;;;;;;;12.05;7.47;;;;;;;4.31;62.64;101832.39;1771348;79;21224;-62
2022/02/15 09:33:20;;;;;;;12.65;6.80;;;;;;;4.36;61.97;101825.34;1770266;81;21340;-64
2022/02/15 09:36:28;;;;;;;10.55;6.30;;;;;;;4.39;61.44;101817.00;1765884;80;21323;-63
2022/02/15 09:39:35;;;;;;;9.30;5.40;;;;;;;4.43;61.07;101813.09;1771739;81;21375;-64
2022/02/15 09:42:43;;;;;;;9.18;5.95;;;;;;;4.50;60.49;101803.59;1771122;80;21319;-63
2022/02/15 09:45:53;;;;;;;14.43;5.28;;;;;;;4.60;60.15;101806.05;1758245;81;21180;-64
2022/02/15 09:49:02;;;;;;;8.50;5.33;;;;;;;4.67;59.42;101799.73;1766279;81;21714;-62
2022/02/15 09:52:07;;;;;;;12.58;7.12;;;;;;;4.76;59.20;101801.84;1771013;80;21200;-62
2022/02/15 09:55:14;;;;;;;11.33;5.83;;;;;;;4.83;59.05;101793.66;1770810;79;21905;-63
2022/02/15 09:58:21;;;;;;;7.80;5.00;;;;;;;4.92;58.89;101796.60;1687585;82;21232;-64
2022/02/15 10:01:26;;;;;;;9.65;5.62;;;;;;;5.02;58.28;101798.20;1741262;81;21220;-61
2022/02/15 10:04:37;;;;;;;10.25;5.95;;;;;;;5.05;57.51;101791.20;1742992;81;21250;-63
2022/02/15 10:07:43;;;;;;;10.08;5.78;;;;;;;5.15;57.51;101786.88;1769419;80;21212;-63
2022/02/15 10:10:47;;;;;;;8.85;5.37;;;;;;;5.23;56.91;101781.27;1761840;80;21209;-64
2022/02/15 10:13:53;;;;;;;11.33;6.20;;;;;;;5.29;56.66;101774.55;1741142;82;21833;-63
2022/02/15 10:17:00;;;;;;;12.35;5.87;;;;;;;5.34;56.31;101765.13;1740242;82;21194;-63
2022/02/15 10:20:05;;;;;;;9.95;5.65;;;;;;;5.39;55.96;101762.92;1740064;81;21320;-63
2022/02/15 10:23:22;;;;;;;10.00;5.70;;;;;;;5.40;55.97;101765.16;1740183;81;21426;-62
2022/02/15 10:26:28;;;;;;;9.38;5.45;;;;;;;5.44;56.01;101751.77;1738674;82;21276;-63
2022/02/15 10:29:43;;;;;;;10.40;6.08;;;;;;;5.44;55.73;101751.77;1761991;81;21247;-60
2022/02/15 10:32:50;;;;;;;13.22;7.12;;;;;;;5.41;55.74;101731.59;1767201;81;21789;-61
2022/02/15 10:36:12;;;;;;;10.90;5.95;;;;;;;5.47;55.79;101738.80;1767694;79;21359;-61
2022/02/15 10:39:19;;;;;;;;;;;;;;;5.57;55.78;101739.89;1755161;81;21185;-64
2022/02/15 10:42:26;;;;;;;12.45;5.30;;;;;;;5.67;55.29;101731.46;1769225;81;20217;-63
2022/02/15 10:45:36;;;;;;;10.05;5.25;;;;;;;5.79;55.41;101722.88;1769884;80;21205;-63
2022/02/15 10:48:41;;;;;;;14.38;6.78;;;;;;;5.95;55.12;101727.12;1767699;80;21183;-64
2022/02/15 10:51:50;;;;;;;11.38;5.00;;;;;;;6.07;54.50;101726.70;1768703;80;21733;-63
2022/02/15 10:54:58;;;;;;;9.90;6.00;;;;;;;6.12;54.04;101725.84;1768802;80;21516;-63
2022/02/15 10:58:06;;;;;;;9.30;4.85;;;;;;;6.16;53.38;101718.33;1765856;81;21188;-64
2022/02/15 11:01:17;;;;;;;11.18;4.97;;;;;;;6.18;53.30;101714.53;1768123;81;21394;-64
2022/02/15 11:04:24;;;;;;;11.00;4.92;;;;;;;6.26;53.54;101712.59;1747002;81;21777;-64
2022/02/15 11:07:36;;;;;;;6.67;4.50;;;;;;;6.33;53.26;101707.92;1761567;80;21192;-65
2022/02/15 11:10:49;;;;;;;7.17;4.37;;;;;;;6.39;52.86;101702.01;1768376;79;21734;-63
2022/02/15 11:14:00;;;;;;;7.28;4.47;;;;;;;6.44;52.57;101695.73;1772094;79;21189;-66
2022/02/15 11:17:08;;;;;;;9.03;4.95;;;;;;;6.44;52.43;101694.89;1766896;80;21181;-61
2022/02/15 11:20:15;;;;;;;11.05;5.72;;;;;;;6.46;52.58;101691.05;1766853;81;21609;-62
2022/02/15 11:23:25;;;;;;;11.93;6.37;;;;;;;6.53;52.33;101677.36;1767215;80;21228;-63
2022/02/15 11:26:33;;;;;;;14.38;5.75;;;;;;;6.60;52.39;101675.88;1767551;81;21209;-62
2022/02/15 11:29:38;;;;;;;7.87;4.83;;;;;;;6.71;52.33;101676.40;1752040;80;21232;-62
2022/02/15 11:32:54;;;;;;;10.58;4.70;;;;;;;6.78;51.79;101672.22;1749091;80;21240;-63
2022/02/15 11:36:02;;;;;;;9.10;5.00;;;;;;;6.89;51.55;101660.00;1769101;79;21233;-61
2022/02/15 11:39:13;;;;;;;10.85;5.47;;;;;;;6.89;51.55;101660.00;1767517;79;21236;-62
2022/02/15 11:42:23;;;;;;;9.15;4.45;;;;;;;7.01;51.91;101658.53;1743442;81;21184;-63
2022/02/15 11:45:38;;;;;;;6.58;3.87;;;;;;;7.15;51.26;101658.80;1765287;81;21204;-62
2022/02/15 11:48:50;;;;;;;6.87;3.87;;;;;;;7.26;50.97;101654.20;1767068;80;21189;-64
2022/02/15 11:51:56;;;;;;;6.97;4.28;;;;;;;7.39;50.57;101652.72;1760236;81;21180;-63
2022/02/15 11:55:16;;;;;;;8.78;4.55;;;;;;;7.46;49.51;101649.88;1741325;80;21726;-67
2022/02/15 11:58:21;;;;;;;18.77;5.30;;;;;;;7.49;48.57;101634.15;1741994;81;21189;-64
2022/02/15 12:01:33;;;;;;;11.65;5.42;;;;;;;7.59;49.11;101631.54;1752865;80;21197;-63
2022/02/15 12:04:40;;;;;;;8.83;4.87;;;;;;;7.68;48.76;101624.44;1767980;79;21772;-63
2022/02/15 12:07:45;;;;;;;7.35;4.33;;;;;;;7.74;47.70;101627.53;1769234;80;21221;-63
2022/02/15 12:10:52;;;;;;;7.90;4.53;;;;;;;7.85;47.72;101628.02;1754292;80;21221;-65
2022/02/15 12:13:58;;;;;;;8.90;5.17;;;;;;;7.97;47.54;101625.61;1764799;80;21154;-64
2022/02/15 12:17:08;;;;;;;11.97;5.15;;;;;;;8.01;47.31;101627.10;1779407;80;21889;-64
2022/02/15 12:20:23;;;;;;;8.80;4.87;;;;;;;8.06;47.64;101627.06;1768591;79;21205;-64
2022/02/15 12:23:49;;;;;;;11.22;5.67;;;;;;;8.16;47.45;101621.70;1766069;80;21253;-62
2022/02/15 12:26:59;;;;;;;10.43;6.17;;;;;;;8.17;46.86;101622.93;1758674;79;21863;-62
2022/02/15 12:30:11;;;;;;;16.85;9.58;;;;;;;8.19;46.51;101620.08;1762429;79;21787;-64
2022/02/15 12:33:25;;;;;;;9.38;5.60;;;;;;;8.14;46.28;101620.95;1765950;80;21738;-65
2022/02/15 12:36:36;;;;;;;13.05;5.95;;;;;;;8.12;46.22;101617.00;1765225;80;21332;-64
2022/02/15 12:40:07;;;;;;;8.33;4.90;;;;;;;8.09;45.46;101610.44;1755719;80;21259;-63
2022/02/15 12:43:41;;;;;;;11.68;6.00;;;;;;;8.11;45.52;101616.64;1749394;80;21221;-64
2022/02/15 12:46:48;;;;;;;10.23;6.28;;;;;;;8.09;44.83;101606.84;1767552;80;21181;-63
2022/02/15 12:49:53;;;;;;;11.20;6.25;;;;;;;8.08;45.31;101613.30;1738898;81;21224;-63
2022/02/15 12:53:00;;;;;;;9.90;6.30;;;;;;;8.05;45.50;101605.38;1761798;80;21722;-63
2022/02/15 12:56:16;;;;;;;10.38;5.92;;;;;;;8.08;45.57;101609.20;1753040;80;21892;-63
2022/02/15 12:59:26;;;;;;;10.93;5.78;;;;;;;8.17;45.09;101609.78;1765785;79;21619;-63
2022/02/15 13:02:35;;;;;;;12.43;6.67;;;;;;;8.16;44.42;101607.58;1766963;80;21197;-65
2022/02/15 13:05:43;;;;;;;15.90;7.47;;;;;;;8.12;44.24;101603.88;1764832;80;21729;-63
2022/02/15 13:08:56;;;;;;;12.68;6.95;;;;;;;8.12;44.73;101601.16;1697302;83;21176;-63
2022/02/15 13:12:08;;;;;;;12.25;6.75;;;;;;;8.20;45.09;101596.75;1757068;80;21217;-63
2022/02/15 13:15:20;;;;;;;16.27;9.23;;;;;;;8.28;45.16;101592.91;1741282;80;21220;-67
2022/02/15 13:18:30;;;;;;;11.83;6.55;;;;;;;8.29;45.25;101594.62;1760730;80;21439;-64
2022/02/15 13:21:37;;;;;;;10.48;6.78;;;;;;;8.33;45.55;101590.66;1757259;80;21264;-63
2022/02/15 13:24:42;;;;;;;14.95;7.05;;;;;;;8.42;45.86;101593.95;1756522;81;21244;-64
2022/02/15 13:27:47;;;;;;;17.60;7.55;;;;;;;8.44;45.74;101582.41;1760602;79;21750;-65
2022/02/15 13:31:08;;;;;;;16.05;7.42;;;;;;;8.50;46.38;101581.02;1755984;79;21232;-68
2022/02/15 13:34:15;;;;;;;13.32;6.90;;;;;;;8.59;46.15;101580.21;1714776;81;21562;-66
2022/02/15 13:37:22;;;;;;;15.40;6.70;;;;;;;8.56;45.73;101576.39;1735232;81;21916;-65
2022/02/15 13:40:30;;;;;;;14.58;8.00;;;;;;;8.47;45.61;101573.08;1766879;80;21707;-64
2022/02/15 13:43:36;;;;;;;14.05;6.55;;;;;;;8.42;45.43;101569.39;1767855;80;21670;-65
2022/02/15 13:46:43;;;;;;;11.20;6.67;;;;;;;8.41;45.35;101569.52;1767861;79;21287;-65
2022/02/15 13:49:49;;;;;;;16.27;6.90;;;;;;;8.44;46.12;101570.62;1760732;79;21746;-64
2022/02/15 13:52:56;;;;;;;13.03;6.83;;;;;;;8.54;46.14;101573.80;1767611;81;21259;-65
2022/02/15 13:56:03;;;;;;;12.90;7.20;;;;;;;8.44;46.16;101571.98;1731054;81;21268;-66
2022/02/15 13:59:10;;;;;;;14.60;6.75;;;;;;;8.42;46.59;101572.64;1757969;79;21597;-62
2022/02/15 14:02:17;;;;;;;11.33;6.03;;;;;;;8.48;46.87;101568.00;1764656;81;21193;-64
2022/02/15 14:05:25;;;;;;;15.30;6.83;;;;;;;8.44;46.96;101563.30;1738481;81;21799;-64
2022/02/15 14:08:29;;;;;;;10.03;6.50;;;;;;;8.37;47.00;101565.34;1744235;81;21200;-64
2022/02/15 14:11:35;;;;;;;14.30;6.80;;;;;;;8.28;46.99;101568.36;1767193;81;21212;-64
2022/02/15 14:14:41;;;;;;;13.20;7.08;;;;;;;8.13;47.26;101567.42;1767005;79;21201;-65
2022/02/15 14:17:49;;;;;;;16.17;7.03;;;;;;;8.05;47.62;101572.66;1767692;81;21702;-64
2022/02/15 14:20:56;;;;;;;13.20;7.47;;;;;;;7.96;47.69;101568.00;1767610;79;21249;-65
2022/02/15 14:24:01;;;;;;;15.25;7.50;;;;;;;7.87;47.78;101570.12;1768393;80;21745;-64
2022/02/15 14:27:07;;;;;;;15.98;8.55;;;;;;;7.72;47.70;101570.94;1768133;80;21189;-64
2022/02/15 14:30:15;;;;;;;12.73;7.45;;;;;;;7.60;47.83;101567.86;1767529;80;21742;-63
2022/02/15 14:33:23;;;;;;;13.13;7.35;;;;;;;7.51;47.90;101574.95;1760573;80;21470;-64